createdAt,value
2019-05-10T00:01:09.691Z,0.23
2019-05-10T00:03:58.995Z,0.20
2019-05-10T00:06:49.336Z,0.30
2019-05-10T00:09:20.962Z,0.20
2019-05-10T00:12:11.908Z,0.30
2019-05-10T00:14:54.522Z,0.30
2019-05-10T00:17:29.984Z,0.30
2019-05-10T00:20:07.455Z,0.27
2019-05-10T00:22:42.247Z,0.30
2019-05-10T00:25:15.078Z,0.20
2019-05-10T00:27:45.319Z,0.30
2019-05-10T00:30:17.649Z,0.20
2019-05-10T00:32:52.303Z,0.20
2019-05-10T00:35:27.944Z,0.20
2019-05-10T00:37:58.454Z,0.30
2019-05-10T00:40:33.033Z,0.20
2019-05-10T00:43:04.088Z,0.20
2019-05-10T00:45:35.224Z,0.30
2019-05-10T00:48:06.065Z,0.30
2019-05-10T00:50:39.807Z,0.20
2019-05-10T00:53:14.507Z,0.30
2019-05-10T00:55:48.455Z,0.30
2019-05-10T00:58:22.304Z,0.30
2019-05-10T01:00:57.087Z,0.30
2019-05-10T01:03:30.117Z,0.20
2019-05-10T01:06:02.680Z,0.20
2019-05-10T01:08:37.763Z,0.20
2019-05-10T01:11:10.844Z,0.20
2019-05-10T01:13:44.039Z,0.30
2019-05-10T01:16:16.223Z,0.20
2019-05-10T01:18:48.454Z,0.30
2019-05-10T01:21:22.891Z,0.30
2019-05-10T01:23:56.687Z,0.30
2019-05-10T01:26:31.615Z,0.20
2019-05-10T01:29:03.848Z,0.20
2019-05-10T01:31:38.303Z,0.30
2019-05-10T01:34:12.559Z,0.20
2019-05-10T01:36:45.695Z,0.20
2019-05-10T01:39:22.708Z,0.20
2019-05-10T01:41:56.493Z,0.27
2019-05-10T01:44:36.236Z,0.20
2019-05-10T01:47:11.137Z,0.30
2019-05-10T01:49:44.935Z,0.20
2019-05-10T01:52:39.940Z,0.30
2019-05-10T01:55:13.888Z,0.20
2019-05-10T01:57:47.687Z,0.30
2019-05-10T02:00:21.577Z,0.20
2019-05-10T02:02:54.409Z,0.30
2019-05-10T02:05:28.366Z,0.30
2019-05-10T02:08:02.144Z,0.30
2019-05-10T02:10:35.413Z,0.20
2019-05-10T02:13:16.617Z,0.30
2019-05-10T02:15:51.433Z,0.30
2019-05-10T02:18:26.305Z,0.30
2019-05-10T02:20:59.565Z,0.30
2019-05-10T02:23:36.418Z,0.20
2019-05-10T02:26:13.219Z,0.20
2019-05-10T02:28:46.495Z,0.20
2019-05-10T02:31:21.725Z,0.30
2019-05-10T02:33:54.996Z,0.20
2019-05-10T02:36:26.688Z,0.20
2019-05-10T02:39:00.419Z,0.30
2019-05-10T02:41:35.172Z,0.20
2019-05-10T02:44:09.119Z,0.30
2019-05-10T02:46:41.247Z,0.30
2019-05-10T02:49:14.504Z,0.20
2019-05-10T02:51:49.449Z,0.27
2019-05-10T02:54:26.571Z,0.20
2019-05-10T02:57:01.751Z,0.27
2019-05-10T02:59:38.022Z,0.23
2019-05-10T03:02:10.853Z,0.20
2019-05-10T03:04:44.554Z,0.20
2019-05-10T03:07:20.384Z,0.20
2019-05-10T03:09:54.321Z,0.20
2019-05-10T03:12:30.583Z,0.20
2019-05-10T03:15:14.098Z,0.20
2019-05-10T03:17:59.658Z,0.20
2019-05-10T03:20:42.033Z,0.23
2019-05-10T03:23:28.644Z,0.30
2019-05-10T03:26:02.793Z,0.20
2019-05-10T03:28:35.978Z,0.30
2019-05-10T03:31:06.221Z,0.20
2019-05-10T03:33:40.032Z,0.20
2019-05-10T03:36:15.783Z,0.20
2019-05-10T03:38:48.716Z,0.20
2019-05-10T03:41:22.748Z,0.20
2019-05-10T03:43:52.480Z,0.20
2019-05-10T03:46:22.753Z,0.20
2019-05-10T03:48:52.515Z,0.20
2019-05-10T03:51:26.468Z,0.20
2019-05-10T03:54:02.291Z,0.20
2019-05-10T03:56:36.318Z,0.17
2019-05-10T03:59:10.358Z,0.20
2019-05-10T04:01:48.810Z,0.20
2019-05-10T04:04:20.603Z,0.30
2019-05-10T04:07:01.165Z,0.20
2019-05-10T04:09:35.896Z,0.20
2019-05-10T04:12:08.100Z,0.20
2019-05-10T04:14:42.337Z,0.20
2019-05-10T04:17:15.292Z,0.20
2019-05-10T04:19:48.605Z,0.20
2019-05-10T04:22:25.505Z,0.20
2019-05-10T04:25:00.864Z,0.20
2019-05-10T04:27:35.677Z,0.20
2019-05-10T04:30:10.721Z,0.20
2019-05-10T04:32:46.330Z,0.20
2019-05-10T04:35:21.252Z,0.10
2019-05-10T04:37:54.261Z,0.20
2019-05-10T04:40:30.200Z,0.20
2019-05-10T04:43:03.409Z,0.17
2019-05-10T04:45:35.313Z,0.20
2019-05-10T04:48:18.492Z,0.20
2019-05-10T04:50:53.330Z,0.20
2019-05-10T04:53:26.239Z,0.20
2019-05-10T04:55:59.046Z,0.20
2019-05-10T04:58:32.319Z,0.20
2019-05-10T05:01:05.418Z,0.10
2019-05-10T05:03:38.223Z,0.20
2019-05-10T05:06:11.584Z,0.20
2019-05-10T05:08:46.623Z,0.20
2019-05-10T05:11:19.465Z,0.20
2019-05-10T05:13:51.510Z,0.20
2019-05-10T05:16:26.157Z,0.20
2019-05-10T05:19:04.155Z,0.20
2019-05-10T05:21:39.154Z,0.20
2019-05-10T05:24:17.178Z,0.20
2019-05-10T05:26:48.667Z,0.20
2019-05-10T05:29:21.951Z,0.10
2019-05-10T05:32:01.158Z,0.20
2019-05-10T05:34:34.670Z,0.13
2019-05-10T05:37:08.677Z,0.10
2019-05-10T05:39:38.467Z,0.20
2019-05-10T05:42:09.597Z,0.20
2019-05-10T05:44:47.592Z,0.20
2019-05-10T05:47:22.559Z,0.20
2019-05-10T05:49:58.624Z,0.20
2019-05-10T05:52:37.106Z,0.10
2019-05-10T05:55:13.268Z,0.10
2019-05-10T05:57:47.334Z,0.20
2019-05-10T06:00:18.963Z,0.20
2019-05-10T06:02:52.920Z,0.10
2019-05-10T06:05:33.928Z,0.10
2019-05-10T06:08:02.265Z,0.10
2019-05-10T06:10:35.082Z,0.10
2019-05-10T06:13:07.718Z,0.13
2019-05-10T06:15:42.541Z,0.10
2019-05-10T06:18:21.734Z,0.10
2019-05-10T06:20:55.359Z,0.10
2019-05-10T06:23:35.335Z,0.13
2019-05-10T06:26:06.226Z,0.20
2019-05-10T06:28:58.512Z,0.17
2019-05-10T06:31:17.442Z,0.20
2019-05-10T06:33:53.152Z,0.20
2019-05-10T06:36:28.023Z,0.10
2019-05-10T06:39:03.815Z,0.10
2019-05-10T06:41:38.882Z,0.10
2019-05-10T06:44:13.801Z,0.10
2019-05-10T06:46:46.252Z,0.10
2019-05-10T06:49:23.171Z,0.20
2019-05-10T06:51:56.959Z,0.20
2019-05-10T06:54:32.777Z,0.10
2019-05-10T06:57:11.325Z,0.20
2019-05-10T06:59:46.791Z,0.10
2019-05-10T07:02:26.850Z,0.10
2019-05-10T07:04:54.950Z,0.10
2019-05-10T07:07:43.179Z,0.10
2019-05-10T07:10:12.150Z,0.10
2019-05-10T07:12:41.894Z,0.10
2019-05-10T07:15:11.835Z,0.10
2019-05-10T07:17:47.007Z,0.20
2019-05-10T07:20:18.000Z,0.10
2019-05-10T07:22:52.180Z,0.10
2019-05-10T07:25:26.436Z,0.10
2019-05-10T07:28:01.100Z,0.10
2019-05-10T07:30:41.274Z,0.10
2019-05-10T07:33:12.066Z,0.20
2019-05-10T07:35:46.760Z,0.10
2019-05-10T07:38:23.529Z,0.10
2019-05-10T07:40:52.176Z,0.10
2019-05-10T07:43:36.463Z,0.10
2019-05-10T07:46:10.180Z,0.10
2019-05-10T07:48:46.969Z,0.20
2019-05-10T07:51:22.823Z,0.20
2019-05-10T07:53:57.112Z,0.10
2019-05-10T07:56:28.749Z,0.10
2019-05-10T07:59:01.604Z,0.10
2019-05-10T08:01:36.001Z,0.10
2019-05-10T08:04:13.017Z,0.10
2019-05-10T08:06:51.123Z,0.00
2019-05-10T08:09:21.047Z,0.10
2019-05-10T08:12:00.614Z,0.10
2019-05-10T08:14:31.135Z,0.10
2019-05-10T08:17:06.251Z,0.10
2019-05-10T08:19:40.036Z,0.10
2019-05-10T08:22:16.931Z,0.10
2019-05-10T08:24:54.890Z,0.10
2019-05-10T08:27:29.193Z,0.10
2019-05-10T08:30:25.593Z,0.10
2019-05-10T08:32:35.154Z,0.00
2019-05-10T08:35:15.961Z,0.10
2019-05-10T08:37:43.450Z,0.00
2019-05-10T08:40:19.620Z,0.00
2019-05-10T08:43:02.915Z,0.10
2019-05-10T08:45:29.601Z,0.00
2019-05-10T08:48:06.862Z,0.10
2019-05-10T08:50:45.613Z,0.10
2019-05-10T08:53:16.094Z,0.10
2019-05-10T08:55:45.729Z,0.07
2019-05-10T08:58:31.693Z,0.10
2019-05-10T09:01:12.135Z,0.00
2019-05-10T09:03:32.232Z,0.07
2019-05-10T09:06:11.975Z,0.00
2019-05-10T09:08:43.148Z,0.00
2019-05-10T09:11:18.087Z,0.00
2019-05-10T09:13:53.444Z,0.10
2019-05-10T09:16:29.255Z,0.00
2019-05-10T09:19:02.606Z,0.00
2019-05-10T09:21:41.313Z,0.10
2019-05-10T09:24:12.791Z,0.10
2019-05-10T09:26:46.814Z,0.10
2019-05-10T09:29:21.900Z,0.10
2019-05-10T09:31:57.168Z,0.00
2019-05-10T09:34:32.473Z,0.00
2019-05-10T09:37:08.249Z,0.00
2019-05-10T09:39:42.371Z,0.00
2019-05-10T09:42:25.493Z,0.10
2019-05-10T09:44:53.379Z,0.00
2019-05-10T09:47:25.685Z,0.07
2019-05-10T09:49:58.838Z,0.00
2019-05-10T09:52:29.073Z,0.10
2019-05-10T09:55:08.677Z,0.00
2019-05-10T09:57:38.100Z,0.10
2019-05-10T10:00:10.376Z,0.00
2019-05-10T10:02:41.101Z,0.00
2019-05-10T10:05:14.835Z,0.00
2019-05-10T10:07:48.019Z,0.00
2019-05-10T10:10:28.610Z,0.10
2019-05-10T10:12:58.367Z,0.10
2019-05-10T10:15:34.437Z,0.00
2019-05-10T10:18:12.650Z,0.10
2019-05-10T10:20:44.979Z,0.07
2019-05-10T10:23:17.209Z,0.10
2019-05-10T10:25:48.392Z,0.10
2019-05-10T10:28:22.671Z,0.00
2019-05-10T10:31:03.396Z,0.00
2019-05-10T10:33:33.837Z,0.10
2019-05-10T10:36:09.914Z,0.00
2019-05-10T10:38:45.306Z,0.10
2019-05-10T10:41:25.906Z,0.10
2019-05-10T10:43:54.654Z,0.00
2019-05-10T10:46:28.019Z,0.00
2019-05-10T10:49:01.959Z,0.10
2019-05-10T10:51:34.726Z,0.00
2019-05-10T10:54:07.815Z,0.00
2019-05-10T10:56:43.047Z,0.10
2019-05-10T10:59:14.984Z,0.10
2019-05-10T11:01:51.980Z,0.00
2019-05-10T11:04:19.937Z,0.10
2019-05-10T11:07:09.219Z,0.00
2019-05-10T11:09:25.151Z,0.00
2019-05-10T11:11:56.727Z,0.10
2019-05-10T11:14:32.074Z,0.00
2019-05-10T11:17:01.182Z,0.00
2019-05-10T11:19:37.998Z,0.00
2019-05-10T11:22:11.058Z,0.00
2019-05-10T11:24:50.637Z,0.03
2019-05-10T11:27:20.008Z,0.10
2019-05-10T11:29:55.037Z,0.10
2019-05-10T11:32:27.131Z,0.10
2019-05-10T11:34:59.942Z,0.00
2019-05-10T11:37:36.427Z,0.10
2019-05-10T11:40:11.321Z,0.10
2019-05-10T11:42:47.510Z,0.00
2019-05-10T11:45:20.943Z,0.10
2019-05-10T11:47:57.130Z,0.00
2019-05-10T11:50:31.826Z,0.10
2019-05-10T11:53:06.756Z,0.10
2019-05-10T11:55:40.071Z,0.10
2019-05-10T11:59:04.539Z,0.00
2019-05-10T12:00:44.206Z,0.00
2019-05-10T12:06:04.457Z,0.10
2019-05-10T12:08:24.903Z,0.00
2019-05-10T12:11:08.389Z,0.10
2019-05-10T12:13:34.379Z,0.10
2019-05-10T12:16:06.379Z,0.10
2019-05-10T12:18:36.688Z,0.00
2019-05-10T12:21:09.495Z,0.10
2019-05-10T12:23:49.870Z,0.10
2019-05-10T12:26:36.003Z,0.10
2019-05-10T12:28:46.697Z,0.00
2019-05-10T12:31:21.062Z,0.10
2019-05-10T12:34:00.489Z,0.10
2019-05-10T12:36:31.489Z,0.10
2019-05-10T12:39:07.235Z,0.10
2019-05-10T12:41:48.332Z,0.10
2019-05-10T12:44:17.170Z,0.10
2019-05-10T12:46:50.934Z,0.00
2019-05-10T12:49:25.462Z,0.00
2019-05-10T12:51:57.509Z,0.10
2019-05-10T12:54:31.686Z,0.10
2019-05-10T12:57:05.541Z,0.10
2019-05-10T12:59:40.739Z,0.00
2019-05-10T13:02:15.552Z,0.10
2019-05-10T13:04:52.498Z,0.00
2019-05-10T13:07:23.827Z,0.10
2019-05-10T13:10:03.956Z,0.00
2019-05-10T13:12:37.029Z,0.10
2019-05-10T13:15:10.467Z,0.10
2019-05-10T13:17:50.714Z,0.20
2019-05-10T13:20:18.216Z,0.10
2019-05-10T13:22:53.477Z,0.00
2019-05-10T13:25:25.320Z,0.10
2019-05-10T13:27:57.745Z,0.07
2019-05-10T13:30:29.909Z,0.10
2019-05-10T13:33:05.264Z,0.10
2019-05-10T13:35:37.440Z,0.00
2019-05-10T13:38:11.252Z,0.00
2019-05-10T13:40:45.701Z,0.10
2019-05-10T13:43:26.448Z,0.10
2019-05-10T13:45:54.799Z,0.10
2019-05-10T13:48:28.871Z,0.10
2019-05-10T13:51:01.688Z,0.10
2019-05-10T13:53:34.051Z,0.10
2019-05-10T13:56:04.877Z,0.10
2019-05-10T13:58:34.699Z,0.10
2019-05-10T14:01:12.960Z,0.10
2019-05-10T14:03:45.351Z,0.00
2019-05-10T14:06:16.483Z,0.03
2019-05-10T14:08:50.502Z,0.10
2019-05-10T14:11:24.387Z,0.03
2019-05-10T14:13:57.842Z,0.10
2019-05-10T14:16:30.184Z,0.10
2019-05-10T14:19:03.876Z,0.10
2019-05-10T14:21:37.671Z,0.07
2019-05-10T14:24:15.131Z,0.00
2019-05-10T14:26:44.643Z,0.00
2019-05-10T14:29:32.854Z,0.10
2019-05-10T14:31:55.944Z,0.00
2019-05-10T14:34:27.465Z,0.10
2019-05-10T14:37:01.669Z,0.10
2019-05-10T14:39:34.955Z,0.10
2019-05-10T14:42:09.528Z,0.10
2019-05-10T14:44:44.150Z,0.10
2019-05-10T14:47:17.759Z,0.10
2019-05-10T14:49:50.942Z,0.10
2019-05-10T14:52:23.180Z,0.10
2019-05-10T14:54:56.929Z,0.10
2019-05-10T14:57:32.223Z,0.10
2019-05-10T15:00:06.504Z,0.10
2019-05-10T15:02:42.401Z,0.10
2019-05-10T15:05:16.596Z,0.10
2019-05-10T15:07:51.531Z,0.10
2019-05-10T15:10:25.543Z,0.10
2019-05-10T15:12:55.268Z,0.10
2019-05-10T15:15:30.928Z,0.10
2019-05-10T15:18:05.064Z,0.10
2019-05-10T15:20:38.879Z,0.10
2019-05-10T15:23:11.688Z,0.10
2019-05-10T15:25:55.865Z,0.20
2019-05-10T15:28:14.470Z,0.10
2019-05-10T15:30:45.938Z,0.10
2019-05-10T15:33:16.814Z,0.10
2019-05-10T15:35:51.701Z,0.10
2019-05-10T15:38:19.524Z,0.10
2019-05-10T15:40:51.775Z,0.10
2019-05-10T15:43:25.127Z,0.20
2019-05-10T15:45:58.859Z,0.10
2019-05-10T15:48:36.599Z,0.20
2019-05-10T15:51:05.436Z,0.10
2019-05-10T15:53:39.295Z,0.10
2019-05-10T15:56:13.939Z,0.10
2019-05-10T15:58:47.555Z,0.10
2019-05-10T16:01:26.243Z,0.10
2019-05-10T16:03:54.407Z,0.10
2019-05-10T16:06:32.574Z,0.10
2019-05-10T16:09:16.917Z,0.20
2019-05-10T16:11:43.111Z,0.20
2019-05-10T16:14:20.270Z,0.10
2019-05-10T16:16:56.482Z,0.10
2019-05-10T16:19:28.941Z,0.10
2019-05-10T16:22:03.842Z,0.10
2019-05-10T16:24:38.532Z,0.10
2019-05-10T16:27:11.084Z,0.10
2019-05-10T16:29:43.307Z,0.10
2019-05-10T16:32:18.987Z,0.20
2019-05-10T16:34:54.339Z,0.10
2019-05-10T16:37:26.303Z,0.10
2019-05-10T16:40:00.165Z,0.10
2019-05-10T16:42:34.440Z,0.10
2019-05-10T16:45:06.656Z,0.10
2019-05-10T16:47:38.643Z,0.10
2019-05-10T16:50:09.032Z,0.10
2019-05-10T16:52:39.492Z,0.10
2019-05-10T16:55:09.997Z,0.10
2019-05-10T16:57:40.322Z,0.00
2019-05-10T17:00:11.584Z,0.00
2019-05-10T17:02:43.845Z,0.10
2019-05-10T17:05:17.203Z,0.00
2019-05-10T17:07:46.491Z,0.00
2019-05-10T17:10:16.839Z,0.00
2019-05-10T17:12:47.019Z,0.00
2019-05-10T17:15:20.994Z,0.00
2019-05-10T17:17:54.926Z,0.00
2019-05-10T17:20:28.671Z,0.00
2019-05-10T17:23:07.690Z,0.00
2019-05-10T17:25:40.538Z,0.10
2019-05-10T17:28:11.305Z,0.00
2019-05-10T17:30:44.744Z,0.00
2019-05-10T17:33:20.019Z,0.00
2019-05-10T17:36:06.477Z,0.00
2019-05-10T17:38:31.813Z,0.10
2019-05-10T17:41:06.076Z,0.00
2019-05-10T17:43:40.375Z,0.00
2019-05-10T17:46:18.847Z,0.00
2019-05-10T17:48:53.093Z,0.00
2019-05-10T17:51:23.441Z,0.00
2019-05-10T17:53:54.969Z,0.00
2019-05-10T17:56:25.131Z,0.00
2019-05-10T17:58:59.785Z,0.00
2019-05-10T18:01:33.417Z,0.10
2019-05-10T18:04:06.818Z,0.00
2019-05-10T18:06:40.072Z,0.10
2019-05-10T18:09:15.141Z,0.00
2019-05-10T18:11:45.302Z,0.10
2019-05-10T18:14:17.843Z,0.00
2019-05-10T18:16:54.341Z,0.10
2019-05-10T18:19:26.638Z,0.10
2019-05-10T18:22:00.826Z,0.10
2019-05-10T18:24:36.366Z,0.10
2019-05-10T18:27:08.684Z,0.10
2019-05-10T18:29:44.099Z,0.10
2019-05-10T18:32:16.461Z,0.10
2019-05-10T18:34:47.408Z,0.10
2019-05-10T18:37:21.886Z,0.10
2019-05-10T18:39:52.852Z,0.10
2019-05-10T18:42:28.040Z,0.10
2019-05-10T18:45:02.980Z,0.10
2019-05-10T18:47:35.780Z,0.20
2019-05-10T18:50:08.542Z,0.10
2019-05-10T18:52:42.472Z,0.10
2019-05-10T18:55:14.204Z,0.20
2019-05-10T18:57:52.634Z,0.10
2019-05-10T19:00:25.423Z,0.10
2019-05-10T19:02:57.194Z,0.20
2019-05-10T19:05:31.714Z,0.13
2019-05-10T19:08:04.044Z,0.20
2019-05-10T19:10:34.277Z,0.20
2019-05-10T19:13:07.870Z,0.20
2019-05-10T19:15:38.302Z,0.20
2019-05-10T19:18:08.386Z,0.10
2019-05-10T19:20:48.838Z,0.37
2019-05-10T19:23:21.590Z,0.20
2019-05-10T19:25:56.167Z,0.20
2019-05-10T19:28:29.635Z,0.10
2019-05-10T19:31:04.662Z,0.20
2019-05-10T19:33:38.852Z,0.10
2019-05-10T19:36:14.372Z,0.13
2019-05-10T19:38:46.674Z,0.20
2019-05-10T19:41:25.022Z,0.10
2019-05-10T19:43:56.062Z,0.20
2019-05-10T19:46:38.303Z,0.20
2019-05-10T19:49:02.167Z,0.20
2019-05-10T19:51:35.870Z,0.20
2019-05-10T19:54:08.246Z,0.20
2019-05-10T19:56:40.355Z,0.20
2019-05-10T19:59:11.710Z,0.20
2019-05-10T20:01:46.088Z,0.20
2019-05-10T20:04:23.271Z,0.20
2019-05-10T20:07:00.597Z,0.20
2019-05-10T20:09:34.883Z,0.20
2019-05-10T20:12:09.326Z,0.20
2019-05-10T20:14:44.040Z,0.20
2019-05-10T20:17:21.722Z,0.30
2019-05-10T20:19:55.849Z,0.20
2019-05-10T20:22:35.992Z,0.20
2019-05-10T20:25:08.312Z,0.20
2019-05-10T20:27:42.185Z,0.20
2019-05-10T20:30:14.761Z,0.20
2019-05-10T20:32:51.786Z,0.20
2019-05-10T20:35:27.684Z,0.20
2019-05-10T20:38:03.944Z,0.20
2019-05-10T20:40:37.243Z,0.20
2019-05-10T20:43:10.603Z,0.20
2019-05-10T20:45:44.418Z,0.20
2019-05-10T20:48:19.329Z,0.20
2019-05-10T20:50:54.065Z,0.20
2019-05-10T20:53:28.731Z,0.20
2019-05-10T20:56:03.619Z,0.20
2019-05-10T20:58:44.168Z,0.20
2019-05-10T21:01:17.460Z,0.20
2019-05-10T21:03:50.125Z,0.20
2019-05-10T21:06:24.319Z,0.20
2019-05-10T21:08:56.997Z,0.23
2019-05-10T21:11:29.924Z,0.20
2019-05-10T21:14:01.230Z,0.20
2019-05-10T21:16:31.930Z,0.30
2019-05-10T21:19:02.569Z,0.20
2019-05-10T21:21:37.780Z,0.10
2019-05-10T21:24:12.287Z,0.20
2019-05-10T21:26:45.792Z,0.20
2019-05-10T21:29:20.612Z,0.20
2019-05-10T21:31:53.543Z,0.30
2019-05-10T21:34:24.126Z,0.27
2019-05-10T21:36:54.768Z,0.20
2019-05-10T21:39:25.144Z,0.20
2019-05-10T21:41:57.072Z,0.20
2019-05-10T21:44:31.746Z,0.30
2019-05-10T21:47:05.580Z,0.30
2019-05-10T21:49:37.338Z,0.20
2019-05-10T21:52:06.706Z,0.20
2019-05-10T21:54:38.731Z,0.20
2019-05-10T21:57:13.164Z,0.30
2019-05-10T21:59:48.555Z,0.30
2019-05-10T22:02:22.595Z,0.20
2019-05-10T22:04:58.463Z,0.20
2019-05-10T22:07:34.239Z,0.30
2019-05-10T22:10:09.400Z,0.27
2019-05-10T22:12:42.270Z,0.30
2019-05-10T22:15:16.687Z,0.27
2019-05-10T22:17:49.232Z,0.20
2019-05-10T22:20:23.071Z,0.20
2019-05-10T22:22:55.584Z,0.30
2019-05-10T22:25:28.701Z,0.30
2019-05-10T22:28:04.513Z,0.23
2019-05-10T22:30:41.273Z,0.23
2019-05-10T22:33:15.125Z,0.20
2019-05-10T22:35:49.126Z,0.20
2019-05-10T22:38:24.771Z,0.30
2019-05-10T22:40:58.468Z,0.30
2019-05-10T22:43:34.302Z,0.20
2019-05-10T22:46:08.128Z,0.20
2019-05-10T22:48:42.313Z,0.20
2019-05-10T22:51:17.255Z,0.23
2019-05-10T22:53:59.470Z,0.20
2019-05-10T22:56:25.415Z,0.30
2019-05-10T22:58:59.167Z,0.20
2019-05-10T23:01:32.936Z,0.30
2019-05-10T23:04:05.667Z,0.20
2019-05-10T23:06:39.425Z,0.20
2019-05-10T23:09:23.935Z,0.30
2019-05-10T23:11:48.175Z,0.20
2019-05-10T23:14:20.569Z,0.30
2019-05-10T23:16:54.856Z,0.23
2019-05-10T23:19:29.634Z,0.30
2019-05-10T23:22:04.392Z,0.20
2019-05-10T23:24:40.074Z,0.20
2019-05-10T23:27:13.266Z,0.30
2019-05-10T23:29:47.528Z,0.30
2019-05-10T23:32:21.346Z,0.20
2019-05-10T23:34:56.837Z,0.27
2019-05-10T23:37:30.595Z,0.20
2019-05-10T23:40:02.860Z,0.23
2019-05-10T23:42:35.202Z,0.30
2019-05-10T23:45:08.387Z,0.30
2019-05-10T23:47:43.145Z,0.20
2019-05-10T23:50:17.430Z,0.20
2019-05-10T23:52:53.185Z,0.30
2019-05-10T23:55:28.022Z,0.30
2019-05-10T23:58:01.393Z,0.30
